Time;durP1;ratioP1;P1;durP2;ratioP2;P2;SDS_P1;SDS_P2;PMS_P1;PMS_P2;Temp;Humidity;BMP_temperature;BMP_pressure;BME280_temperature;BME280_humidity;BME280_pressure;Samples;Min_cycle;Max_cycle;Signal;HPM_P1;HPM_P2
2023/12/12 00:00:32;;;;;;;46.00;26.27;;;179.60;2252.80;;;;;;5009810;28;20040;-65
2023/12/12 00:02:59;;;;;;;47.92;27.65;;;179.60;2252.80;;;;;;5011732;28;20030;-64
2023/12/12 00:05:24;;;;;;;48.30;25.45;;;179.50;2252.80;;;;;;5012513;28;20085;-64
2023/12/12 00:07:50;;;;;;;50.95;26.85;;;179.60;2252.80;;;;;;4999756;28;20031;-64
2023/12/12 00:10:16;;;;;;;48.70;26.20;;;179.60;2252.80;;;;;;5006182;28;20026;-63
2023/12/12 00:12:43;;;;;;;50.38;26.50;;;179.60;2252.80;;;;;;5012393;28;20044;-64
2023/12/12 00:15:09;;;;;;;48.47;26.75;;;179.70;2252.80;;;;;;5015780;28;20022;-63
2023/12/12 00:17:35;;;;;;;46.40;25.85;;;179.80;2252.80;;;;;;5008010;28;20041;-65
2023/12/12 00:20:01;;;;;;;48.78;26.48;;;179.80;2252.80;;;;;;5015068;28;20522;-63
2023/12/12 00:22:27;;;;;;;51.00;25.67;;;179.90;2252.80;;;;;;5014863;28;20033;-63
2023/12/12 00:24:52;;;;;;;49.38;27.10;;;179.90;2252.80;;;;;;5014760;28;20096;-63
2023/12/12 00:27:18;;;;;;;53.65;29.20;;;179.90;2252.80;;;;;;5014569;28;20053;-62
2023/12/12 00:29:45;;;;;;;51.33;28.75;;;179.90;2252.80;;;;;;5014672;28;20109;-64
2023/12/12 00:32:10;;;;;;;53.47;29.67;;;179.90;2252.80;;;;;;5009468;28;20471;-63
2023/12/12 00:34:40;;;;;;;68.05;35.22;;;179.90;2252.80;;;;;;5013797;28;20044;-63
2023/12/12 00:37:06;;;;;;;124.85;59.25;;;179.80;2252.80;;;;;;5014208;28;20467;-63
2023/12/12 00:39:37;;;;;;;114.65;54.55;;;179.90;2252.80;;;;;;5014446;28;20087;-63
2023/12/12 00:42:03;;;;;;;86.90;42.10;;;179.90;2252.80;;;;;;5014375;28;20022;-63
2023/12/12 00:44:29;;;;;;;71.22;37.63;;;179.90;2252.80;;;;;;5014046;28;20034;-64
2023/12/12 00:46:54;;;;;;;63.63;34.38;;;179.80;2252.80;;;;;;5012467;28;20054;-66
2023/12/12 00:49:20;;;;;;;64.00;34.13;;;179.70;2252.80;;;;;;5002193;28;20731;-63
2023/12/12 00:51:46;;;;;;;61.00;32.88;;;179.70;2252.80;;;;;;5014378;28;20064;-65
2023/12/12 00:54:12;;;;;;;66.93;34.28;;;179.60;2252.80;;;;;;5014425;28;20034;-64
2023/12/12 00:56:37;;;;;;;70.32;35.72;;;179.60;2252.80;;;;;;5013453;28;20648;-63
2023/12/12 00:59:03;;;;;;;75.90;39.38;;;179.60;2252.80;;;;;;5014208;28;20108;-63
2023/12/12 01:01:29;;;;;;;74.78;39.47;;;179.50;2252.80;;;;;;5014425;28;20076;-63
2023/12/12 01:03:54;;;;;;;77.88;37.97;;;179.50;2252.80;;;;;;5013951;28;20026;-63
2023/12/12 01:06:24;;;;;;;76.82;39.30;;;179.30;2252.80;;;;;;5014801;28;20047;-63
2023/12/12 01:08:50;;;;;;;89.85;46.30;;;179.30;2252.80;;;;;;5013951;28;20474;-62
2023/12/12 01:11:17;;;;;;;101.97;48.13;;;179.20;2252.80;;;;;;5016838;28;20032;-70
2023/12/12 01:13:43;;;;;;;121.10;57.00;;;154.50;2252.80;;;;;;5016718;28;20044;-64
2023/12/12 01:16:08;;;;;;;127.75;60.47;;;154.40;2252.80;;;;;;5013691;28;20030;-63
2023/12/12 01:18:37;;;;;;;120.70;57.38;;;154.40;2252.80;;;;;;5013860;28;20375;-63
2023/12/12 01:21:03;;;;;;;99.15;45.85;;;154.40;2252.80;;;;;;5009576;28;20033;-64
2023/12/12 01:23:55;;;;;;;87.90;41.92;;;154.40;2252.80;;;;;;5013302;28;20048;-63
2023/12/12 01:26:22;;;;;;;81.65;41.95;;;154.30;2252.80;;;;;;5019510;28;20497;-64
2023/12/12 01:28:49;;;;;;;80.40;41.53;;;154.30;2252.80;;;;;;5014757;28;20112;-64
2023/12/12 01:31:15;;;;;;;82.43;42.25;;;154.20;2252.80;;;;;;5028612;28;20573;-64
2023/12/12 01:33:42;;;;;;;79.40;40.05;;;154.10;2252.80;;;;;;5010908;28;20065;-63
2023/12/12 01:36:08;;;;;;;79.13;38.13;;;154.00;2252.80;;;;;;5012901;28;20049;-65
2023/12/12 01:38:33;;;;;;;74.50;36.03;;;154.00;2252.80;;;;;;5013450;28;20081;-63
2023/12/12 01:40:59;;;;;;;63.97;33.10;;;154.00;2252.80;;;;;;5015936;28;20022;-68
2023/12/12 01:43:27;;;;;;;85.47;40.53;;;154.00;2252.80;;;;;;5017024;28;20038;-69
2023/12/12 01:45:58;;;;;;;69.22;35.72;;;154.00;2252.80;;;;;;5015415;28;20045;-64
2023/12/12 01:48:24;;;;;;;67.78;34.00;;;154.10;2252.80;;;;;;5014318;28;20105;-63
2023/12/12 01:50:51;;;;;;;58.33;32.40;;;154.20;2252.80;;;;;;5008141;28;20467;-63
2023/12/12 01:53:23;;;;;;;65.28;34.15;;;154.20;2252.80;;;;;;5013326;28;20042;-63
2023/12/12 01:55:51;;;;;;;66.72;35.22;;;154.20;2252.80;;;;;;5012726;28;20045;-64
2023/12/12 01:58:18;;;;;;;72.10;37.05;;;154.20;2252.80;;;;;;5012385;28;20030;-63
2023/12/12 02:00:45;;;;;;;82.93;41.13;;;154.20;2252.80;;;;;;5012753;28;20463;-63
2023/12/12 02:03:12;;;;;;;81.28;39.60;;;154.40;2252.80;;;;;;5012626;28;20072;-65
2023/12/12 02:05:39;;;;;;;72.78;37.25;;;154.30;2252.80;;;;;;5011905;28;20028;-64
2023/12/12 02:08:05;;;;;;;84.57;41.60;;;154.30;2252.80;;;;;;5006328;28;20430;-64
2023/12/12 02:10:31;;;;;;;116.25;54.80;;;154.30;2252.80;;;;;;5012826;28;20030;-63
2023/12/12 02:12:57;;;;;;;97.65;48.08;;;154.30;2252.80;;;;;;5012590;28;20025;-63
2023/12/12 02:15:23;;;;;;;85.82;42.92;;;154.20;2252.80;;;;;;5012582;28;20105;-64
2023/12/12 02:17:49;;;;;;;87.70;44.05;;;154.20;2252.80;;;;;;5012609;28;20091;-63
2023/12/12 02:20:15;;;;;;;88.38;46.85;;;154.20;2252.80;;;;;;5012593;28;20057;-63
2023/12/12 02:22:42;;;;;;;85.07;44.95;;;154.20;2252.80;;;;;;5012818;28;20072;-63
2023/12/12 02:25:08;;;;;;;83.90;44.05;;;154.10;2252.80;;;;;;5009529;28;20025;-63
2023/12/12 02:27:36;;;;;;;80.97;42.50;;;154.20;2252.80;;;;;;5012371;28;20026;-63
2023/12/12 02:30:01;;;;;;;78.03;39.65;;;154.20;2252.80;;;;;;5012554;28;20467;-63
2023/12/12 02:32:30;;;;;;;72.03;37.60;;;154.20;2252.80;;;;;;5009958;28;20022;-63
2023/12/12 02:34:56;;;;;;;72.70;38.80;;;154.20;2252.80;;;;;;5008974;28;20049;-63
2023/12/12 02:37:22;;;;;;;71.50;38.17;;;154.20;2252.80;;;;;;5011946;28;20018;-63
2023/12/12 02:39:47;;;;;;;72.05;38.72;;;154.20;2252.80;;;;;;5011617;28;20030;-63
2023/12/12 02:42:13;;;;;;;96.15;48.58;;;154.10;2252.80;;;;;;5011375;28;20048;-65
2023/12/12 02:44:39;;;;;;;88.55;45.58;;;154.00;2252.80;;;;;;5012397;28;20038;-64
2023/12/12 02:47:06;;;;;;;104.90;54.47;;;154.00;2252.80;;;;;;5018876;28;20056;-64
2023/12/12 02:49:32;;;;;;;87.32;46.50;;;154.00;2252.80;;;;;;5020446;28;20048;-65
2023/12/12 02:51:59;;;;;;;84.10;42.45;;;153.90;2252.80;;;;;;5010031;28;20026;-62
2023/12/12 02:54:24;;;;;;;82.30;39.63;;;153.90;2252.80;;;;;;5011707;28;20041;-63
2023/12/12 02:56:50;;;;;;;80.60;39.67;;;153.90;2252.80;;;;;;5024919;28;20029;-65
2023/12/12 02:59:16;;;;;;;75.88;39.20;;;153.90;2252.80;;;;;;5032138;28;20030;-64
2023/12/12 03:01:42;;;;;;;74.80;38.88;;;153.90;2252.80;;;;;;5027153;28;20422;-63
2023/12/12 03:04:08;;;;;;;73.85;39.40;;;;;;;;;;5019134;28;20067;-63
2023/12/12 03:06:34;;;;;;;79.03;41.05;;;;;;;;;;5030972;28;20028;-66
2023/12/12 03:09:00;;;;;;;106.43;51.50;;;;;;;;;;5007368;28;20511;-63
2023/12/12 03:11:26;;;;;;;99.38;48.38;;;;;;;;;;5011749;28;20495;-63
2023/12/12 03:13:52;;;;;;;97.15;46.75;;;;;;;;;;5011342;28;20042;-63
2023/12/12 03:16:18;;;;;;;79.28;40.95;;;;;;;;;;5011931;28;20026;-63
2023/12/12 03:18:44;;;;;;;93.32;44.65;;;;;;;;;;5011487;28;20029;-64
2023/12/12 03:21:10;;;;;;;82.25;42.60;;;;;;;;;;5030911;28;20421;-63
2023/12/12 03:23:36;;;;;;;76.25;38.90;;;;;;;;;;5011343;28;20034;-64
2023/12/12 03:26:08;;;;;;;79.32;39.67;;;;;;;;;;5006387;28;20033;-63
2023/12/12 03:28:34;;;;;;;76.63;39.35;;;;;;;;;;5010442;28;20050;-63
2023/12/12 03:31:00;;;;;;;72.63;36.35;;;;;;;;;;5020473;28;20029;-63
2023/12/12 03:33:26;;;;;;;73.35;36.75;;;;;;;;;;5008686;28;20796;-64
2023/12/12 03:35:52;;;;;;;70.45;37.05;;;;;;;;;;5011348;28;20061;-65
2023/12/12 03:38:19;;;;;;;66.05;36.30;;;;;;;;;;5016400;28;20057;-73
2023/12/12 03:40:45;;;;;;;71.93;36.78;;;;;;;;;;5031251;28;20025;-63
2023/12/12 03:43:11;;;;;;;68.25;35.88;;;;;;;;;;5030879;28;20032;-72
2023/12/12 03:45:37;;;;;;;69.03;36.33;;;;;;;;;;5016725;28;20042;-65
2023/12/12 03:48:03;;;;;;;77.32;39.08;;;;;;;;;;5026377;28;20084;-63
2023/12/12 03:50:29;;;;;;;81.25;40.95;;;;;;;;;;5019631;28;20077;-64
2023/12/12 03:52:55;;;;;;;83.75;41.95;;;;;;;;;;5005734;28;20491;-64
2023/12/12 03:55:21;;;;;;;69.80;37.83;;;;;;;;;;5023523;28;20483;-63
2023/12/12 03:57:47;;;;;;;75.93;38.63;;;;;;;;;;5014326;28;20029;-63
2023/12/12 04:00:14;;;;;;;75.78;38.10;;;;;;;;;;5020469;28;20080;-64
2023/12/12 04:02:40;;;;;;;63.92;34.72;;;;;;;;;;5032675;28;20495;-63
2023/12/12 04:05:09;;;;;;;60.47;31.40;;;;;;;;;;5032759;28;20021;-63
2023/12/12 04:07:36;;;;;;;50.55;28.85;;;;;;;;;;5025484;28;20014;-63
2023/12/12 04:10:03;;;;;;;61.13;32.83;;;153.80;2252.80;;;;;;5011826;28;20062;-64
2023/12/12 04:12:29;;;;;;;71.05;33.30;;;128.80;2252.80;;;;;;5006016;28;20018;-65
2023/12/12 04:14:55;;;;;;;60.10;31.70;;;128.20;2252.80;;;;;;5012433;28;20383;-63
2023/12/12 04:17:20;;;;;;;61.67;32.20;;;128.30;2252.80;;;;;;5014893;28;20022;-65
2023/12/12 04:19:46;;;;;;;53.70;32.45;;;128.30;2252.80;;;;;;5014938;28;20084;-64
2023/12/12 04:22:12;;;;;;;69.90;38.58;;;128.30;2252.80;;;;;;5016542;28;20029;-65
2023/12/12 04:24:37;;;;;;;77.15;41.50;;;128.30;2252.80;;;;;;5018200;28;20044;-64
2023/12/12 04:27:03;;;;;;;78.10;42.70;;;128.30;2252.80;;;;;;5016956;28;20022;-63
2023/12/12 04:29:29;;;;;;;77.55;38.45;;;128.30;2252.80;;;;;;5014109;28;20037;-62
2023/12/12 04:31:56;;;;;;;78.80;41.35;;;128.30;2252.80;;;;;;5009480;28;20569;-63
2023/12/12 04:34:21;;;;;;;88.78;43.58;;;128.30;2252.80;;;;;;5011715;28;20073;-63
2023/12/12 04:36:48;;;;;;;76.57;41.63;;;128.30;2252.80;;;;;;5014594;28;20053;-63
2023/12/12 04:39:17;;;;;;;84.28;42.20;;;128.30;2252.80;;;;;;5019518;28;20030;-63
2023/12/12 04:41:44;;;;;;;130.95;62.50;;;128.40;2252.80;;;;;;5034066;28;20025;-62
2023/12/12 04:44:09;;;;;;;93.07;45.60;;;128.30;2252.80;;;;;;5034044;28;20117;-62
2023/12/12 04:46:35;;;;;;;82.03;42.85;;;128.20;2252.80;;;;;;5017658;28;20124;-70
2023/12/12 04:49:02;;;;;;;145.52;46.00;;;103.20;2227.20;;;;;;5010910;28;20037;-63
2023/12/12 04:51:28;;;;;;;208.85;38.42;;;102.90;2227.20;;;;;;5009104;28;20022;-63
2023/12/12 04:53:54;;;;;;;70.50;33.72;;;77.70;2227.20;;;;;;5014219;28;20168;-63
2023/12/12 04:56:20;;;;;;;71.75;35.35;;;77.70;2227.20;;;;;;5014129;28;20105;-62
2023/12/12 04:58:46;;;;;;;67.22;34.63;;;77.70;2227.20;;;;;;5013473;28;20022;-64
2023/12/12 05:01:14;;;;;;;67.65;32.65;;;102.40;2227.20;;;;;;5013564;28;20109;-63
2023/12/12 05:03:40;;;;;;;59.25;32.42;;;102.50;2227.20;;;;;;5013471;28;20033;-63
2023/12/12 05:06:08;;;;;;;58.13;32.40;;;102.60;2227.20;;;;;;5013954;28;20022;-63
2023/12/12 05:08:34;;;;;;;60.85;32.00;;;102.70;2227.20;;;;;;5009879;28;20061;-63
2023/12/12 05:10:59;;;;;;;66.70;37.55;;;102.60;2227.20;;;;;;5008658;28;20518;-63
2023/12/12 05:13:25;;;;;;;82.88;39.67;;;102.60;2227.20;;;;;;5013427;28;20041;-76
2023/12/12 05:15:51;;;;;;;85.00;38.10;;;102.60;2227.20;;;;;;5013460;28;20087;-64
2023/12/12 05:18:17;;;;;;;72.35;38.85;;;102.60;2227.20;;;;;;5013665;28;20037;-63
2023/12/12 05:20:43;;;;;;;127.70;67.50;;;102.60;2227.20;;;;;;5013602;28;20434;-63
2023/12/12 05:23:09;;;;;;;107.35;54.80;;;102.70;2227.20;;;;;;5014059;28;20042;-63
2023/12/12 05:25:35;;;;;;;96.05;49.33;;;102.70;2227.20;;;;;;5013809;28;20026;-63
2023/12/12 05:28:01;;;;;;;100.93;52.25;;;102.70;2227.20;;;;;;5011687;28;20034;-64
2023/12/12 05:30:27;;;;;;;92.50;50.03;;;102.60;2227.20;;;;;;5007331;28;20026;-63
2023/12/12 05:32:52;;;;;;;85.68;46.05;;;102.60;2227.20;;;;;;5013487;28;20045;-63
2023/12/12 05:35:18;;;;;;;84.25;44.72;;;102.60;2227.20;;;;;;5012285;28;20026;-63
2023/12/12 05:37:44;;;;;;;84.32;46.53;;;102.60;2227.20;;;;;;5013141;28;20117;-63
2023/12/12 05:40:10;;;;;;;80.35;44.05;;;102.60;2227.20;;;;;;5013258;28;20030;-63
2023/12/12 05:42:38;;;;;;;75.68;43.13;;;102.60;2227.20;;;;;;5017612;28;20029;-63
2023/12/12 05:45:04;;;;;;;74.80;40.90;;;102.50;2227.20;;;;;;5019268;28;20026;-63
2023/12/12 05:47:30;;;;;;;84.57;45.53;;;102.50;2227.20;;;;;;5012644;28;20018;-63
2023/12/12 05:49:55;;;;;;;76.95;44.22;;;102.40;2227.20;;;;;;5012944;28;20041;-63
2023/12/12 05:52:21;;;;;;;103.72;56.70;;;102.50;2227.20;;;;;;5015852;28;20425;-63
2023/12/12 05:54:47;;;;;;;106.65;56.75;;;102.50;2227.20;;;;;;5022484;28;20029;-63
2023/12/12 05:57:13;;;;;;;116.05;68.63;;;102.50;2227.20;;;;;;5021235;28;20026;-63
2023/12/12 05:59:38;;;;;;;103.15;60.00;;;102.40;2227.20;;;;;;5021148;28;20037;-64
2023/12/12 06:02:04;;;;;;;107.35;58.75;;;102.40;2227.20;;;;;;5018716;28;20025;-64
2023/12/12 06:04:30;;;;;;;114.40;66.43;;;77.70;2227.20;;;;;;5017440;28;20080;-62
2023/12/12 06:06:55;;;;;;;245.77;50.58;;;102.40;2227.20;;;;;;5009543;28;20032;-63
2023/12/12 06:09:21;;;;;;;184.10;42.75;;;102.40;2227.20;;;;;;5006931;28;20939;-64
2023/12/12 06:11:47;;;;;;;663.47;60.85;;;77.60;2227.20;;;;;;5013929;28;20074;-63
2023/12/12 06:14:12;;;;;;;147.65;42.95;;;77.60;2227.20;;;;;;5010163;28;20045;-63
2023/12/12 06:16:38;;;;;;;203.75;46.38;;;77.60;2227.20;;;;;;5009962;28;20026;-62
2023/12/12 06:19:04;;;;;;;1151.40;84.88;;;77.40;2227.20;;;;;;5004869;28;20034;-63
2023/12/12 06:21:33;;;;;;;160.38;46.42;;;77.40;2227.20;;;;;;5012472;28;20037;-63
2023/12/12 06:24:03;;;;;;;100.55;41.63;;;77.40;2227.20;;;;;;5011335;28;20113;-64
2023/12/12 06:26:32;;;;;;;346.83;73.10;;;77.50;2227.20;;;;;;5009798;28;20038;-63
2023/12/12 06:28:58;;;;;;;135.98;57.15;;;77.40;2227.20;;;;;;5005333;28;20060;-64
2023/12/12 06:31:24;;;;;;;258.13;76.40;;;77.30;2227.20;;;;;;5011109;28;20092;-63
2023/12/12 06:33:52;;;;;;;419.10;66.45;;;77.50;2227.20;;;;;;5006495;28;20041;-63
2023/12/12 06:36:17;;;;;;;435.33;53.40;;;77.30;2227.20;;;;;;5000339;28;20030;-65
2023/12/12 06:38:43;;;;;;;468.85;63.33;;;;;;;;;;5007745;28;20834;-63
2023/12/12 06:41:10;;;;;;;679.53;85.18;;;77.00;2227.20;;;;;;5019445;28;20109;-63
2023/12/12 06:43:36;;;;;;;1999.90;408.88;;;76.80;2227.20;;;;;;5033733;28;20025;-64
2023/12/12 06:46:02;;;;;;;582.83;132.20;;;52.10;2227.20;;;;;;5028547;28;20045;-64
2023/12/12 06:48:28;;;;;;;502.45;98.53;;;76.80;2227.20;;;;;;5006269;28;20037;-64
2023/12/12 06:50:54;;;;;;;528.92;91.50;;;76.90;2227.20;;;;;;5012329;28;20379;-64
2023/12/12 06:53:20;;;;;;;567.10;101.70;;;76.90;2227.20;;;;;;5011077;28;20073;-63
2023/12/12 06:55:47;;;;;;;318.67;81.10;;;76.90;2227.20;;;;;;5011094;28;20072;-64
2023/12/12 06:58:16;;;;;;;229.07;67.80;;;77.00;2227.20;;;;;;5011948;28;20030;-63
2023/12/12 07:00:42;;;;;;;322.95;87.40;;;77.30;2227.20;;;;;;5011963;28;20503;-63
2023/12/12 07:03:10;;;;;;;302.40;73.40;;;77.60;2227.20;;;;;;5009869;28;20482;-64
2023/12/12 07:05:36;;;;;;;196.25;64.70;;;102.60;2227.20;;;;;;5005972;28;20026;-69
2023/12/12 07:08:03;;;;;;;180.93;59.95;;;102.50;2227.20;;;;;;5022366;28;20033;-64
2023/12/12 07:10:29;;;;;;;303.35;85.20;;;102.80;2227.20;;;;;;5009418;28;20034;-65
2023/12/12 07:12:55;;;;;;;225.75;76.45;;;102.60;2227.20;;;;;;5008618;28;20043;-64
2023/12/12 07:15:23;;;;;;;150.85;55.15;;;77.70;2227.20;;;;;;5012278;28;20147;-65
2023/12/12 07:17:49;;;;;;;148.68;52.40;;;77.50;2227.20;;;;;;5008170;28;20476;-63
2023/12/12 07:20:15;;;;;;;223.85;72.03;;;77.70;2227.20;;;;;;5001893;28;20038;-65
2023/12/12 07:22:40;;;;;;;207.90;83.22;;;77.70;2227.20;;;;;;5017593;28;20104;-64
2023/12/12 07:25:08;;;;;;;161.02;62.58;;;102.40;2227.20;;;;;;5014516;28;20033;-63
2023/12/12 07:27:33;;;;;;;145.27;70.10;;;102.50;2227.20;;;;;;5013262;28;20036;-63
2023/12/12 07:29:59;;;;;;;102.63;49.65;;;102.70;2227.20;;;;;;5023647;28;20033;-63
2023/12/12 07:32:26;;;;;;;121.05;56.10;;;102.70;2227.20;;;;;;5017651;28;20038;-63
2023/12/12 07:34:53;;;;;;;101.57;49.30;;;102.70;2227.20;;;;;;5014737;28;20109;-66
2023/12/12 07:37:19;;;;;;;88.90;44.25;;;102.70;2227.20;;;;;;5009594;28;20526;-66
2023/12/12 07:39:44;;;;;;;77.38;38.97;;;102.60;2227.20;;;;;;5008915;28;20025;-64
2023/12/12 07:42:10;;;;;;;85.13;44.42;;;102.70;2227.20;;;;;;5013655;28;20040;-64
2023/12/12 07:44:36;;;;;;;87.88;46.58;;;102.80;2227.20;;;;;;5015132;28;20030;-63
2023/12/12 07:47:02;;;;;;;82.35;44.65;;;102.80;2227.20;;;;;;5006692;28;20591;-63
2023/12/12 07:49:29;;;;;;;80.72;40.58;;;103.10;2227.20;;;;;;5013980;28;20032;-65
2023/12/12 07:51:54;;;;;;;95.40;52.50;;;128.00;2252.80;;;;;;5022520;28;20360;-63
2023/12/12 07:54:20;;;;;;;93.45;56.08;;;153.70;2252.80;;;;;;5014727;28;20088;-65
2023/12/12 07:56:46;;;;;;;69.90;46.05;;;179.60;2252.80;;;;;;5013944;28;20052;-63
2023/12/12 07:59:12;;;;;;;48.10;31.17;;;205.10;2252.80;;;;;;5016267;28;20037;-63
2023/12/12 08:01:39;;;;;;;45.92;28.65;;;231.00;2252.80;;;;;;5032615;28;20018;-63
2023/12/12 08:04:05;;;;;;;79.22;41.33;;;;;;;;;;5019147;28;20018;-63
2023/12/12 08:06:32;;;;;;;152.30;72.50;;;;;;;;;;5015082;28;20040;-63
2023/12/12 08:08:59;;;;;;;247.48;114.68;;;256.50;2252.80;;;;;;5024268;28;20066;-63
2023/12/12 08:11:27;;;;;;;65.47;40.65;;;256.80;2252.80;;;;;;5013751;28;20042;-64
2023/12/12 08:13:54;;;;;;;50.35;32.22;;;281.80;2278.40;;;;;;5018305;28;20479;-63
2023/12/12 08:16:21;;;;;;;70.35;42.65;;;281.80;2278.40;;;;;;5017108;28;20025;-67
2023/12/12 08:18:47;;;;;;;92.03;53.85;;;281.90;2278.40;;;;;;5013880;28;20434;-64
2023/12/12 08:21:12;;;;;;;62.92;40.70;;;282.00;2278.40;;;;;;5017205;28;20030;-64
2023/12/12 08:23:41;;;;;;;68.13;44.50;;;282.30;2278.40;;;;;;5013549;28;20099;-64
2023/12/12 08:26:07;;;;;;;74.25;45.47;;;282.40;2278.40;;;;;;5013684;28;20092;-63
2023/12/12 08:28:33;;;;;;;76.40;44.85;;;282.30;2278.40;;;;;;5031975;28;20024;-63
2023/12/12 08:30:59;;;;;;;75.68;44.67;;;307.20;2304.00;;;;;;5026072;28;20034;-64
2023/12/12 08:33:25;;;;;;;42.00;27.70;;;282.40;2278.40;;;;;;5016838;28;20066;-65
2023/12/12 08:35:50;;;;;;;41.55;27.92;;;282.30;2278.40;;;;;;5030447;28;20458;-64
2023/12/12 08:38:16;;;;;;;39.17;29.10;;;307.20;2304.00;;;;;;5018800;28;20029;-63
2023/12/12 08:40:43;;;;;;;40.67;26.58;;;282.50;2278.40;;;;;;5012346;28;20382;-64
2023/12/12 08:43:08;;;;;;;58.22;34.75;;;307.30;2304.00;;;;;;5020168;28;20386;-63
2023/12/12 08:45:34;;;;;;;66.50;39.58;;;307.20;2304.00;;;;;;5030217;28;20048;-64
2023/12/12 08:48:00;;;;;;;50.67;31.42;;;307.50;2304.00;;;;;;5027072;28;20105;-63
2023/12/12 08:50:25;;;;;;;58.70;35.63;;;307.20;2304.00;;;;;;5018412;28;20072;-65
2023/12/12 08:52:51;;;;;;;57.47;34.10;;;282.30;2278.40;;;;;;5013233;28;20037;-65
2023/12/12 08:55:17;;;;;;;47.80;28.77;;;282.10;2278.40;;;;;;5032441;28;20033;-64
2023/12/12 08:57:43;;;;;;;72.43;43.30;;;282.20;2278.40;;;;;;5031891;28;20013;-64
2023/12/12 09:00:12;;;;;;;97.70;51.53;;;282.30;2278.40;;;;;;5030300;28;20029;-64
2023/12/12 09:02:39;;;;;;;115.25;56.60;;;282.20;2278.40;;;;;;5030466;28;20026;-63
2023/12/12 09:05:06;;;;;;;65.55;39.90;;;282.40;2278.40;;;;;;5031388;28;20036;-63
2023/12/12 09:07:35;;;;;;;104.70;55.03;;;307.40;2304.00;;;;;;5020687;28;20022;-63
2023/12/12 09:10:03;;;;;;;61.38;37.22;;;307.30;2304.00;;;;;;5013070;28;20033;-64
2023/12/12 09:12:29;;;;;;;68.10;37.30;;;307.60;2304.00;;;;;;5011479;28;20108;-64
2023/12/12 09:14:55;;;;;;;42.65;25.48;;;333.20;2329.60;;;;;;5011276;28;20120;-63
2023/12/12 09:17:20;;;;;;;74.22;42.72;;;333.60;2329.60;;;;;;5013729;28;20386;-64
2023/12/12 09:19:46;;;;;;;60.03;32.33;;;333.20;2329.60;;;;;;5012904;28;20139;-63
2023/12/12 09:22:12;;;;;;;66.80;34.72;;;333.00;2329.60;;;;;;5013634;28;20025;-63
2023/12/12 09:24:38;;;;;;;72.93;38.60;;;333.20;2329.60;;;;;;5012000;28;20448;-63
2023/12/12 09:27:04;;;;;;;35.28;19.88;;;333.60;2329.60;;;;;;5013105;28;20204;-64
2023/12/12 09:29:30;;;;;;;61.08;31.80;;;333.50;2329.60;;;;;;5012154;28;20021;-64
2023/12/12 09:31:56;;;;;;;105.50;52.22;;;333.60;2329.60;;;;;;5005913;28;20030;-62
2023/12/12 09:34:23;;;;;;;50.00;29.02;;;358.60;2329.60;;;;;;5010580;28;20033;-63
2023/12/12 09:36:50;;;;;;;58.92;35.38;;;;;;;;;;5021549;28;20384;-62
2023/12/12 09:39:16;;;;;;;45.70;26.75;;;359.20;2329.60;;;;;;5013736;28;20057;-75
2023/12/12 09:41:47;;;;;;;45.08;26.13;;;359.30;2329.60;;;;;;5016299;28;20080;-63
2023/12/12 09:44:16;;;;;;;50.55;30.05;;;359.30;2329.60;;;;;;5035042;28;20128;-64
2023/12/12 09:46:43;;;;;;;57.08;32.60;;;384.30;2329.60;;;;;;5033404;28;20405;-61
2023/12/12 09:49:11;;;;;;;70.20;40.47;;;384.20;2329.60;;;;;;5023750;28;20031;-63
2023/12/12 09:51:40;;;;;;;43.10;25.42;;;384.10;2329.60;;;;;;5032246;28;20530;-65
2023/12/12 09:54:07;;;;;;;41.63;25.08;;;384.20;2329.60;;;;;;5013256;28;20035;-62
2023/12/12 09:56:35;;;;;;;68.78;37.25;;;384.60;2329.60;;;;;;5013554;28;20084;-63
2023/12/12 09:59:01;;;;;;;35.53;21.52;;;359.30;2329.60;;;;;;5013474;28;20029;-76
2023/12/12 10:01:27;;;;;;;53.40;32.95;;;359.00;2329.60;;;;;;5012711;28;20720;-63
2023/12/12 10:03:54;;;;;;;43.95;27.67;;;358.90;2329.60;;;;;;5013158;28;20048;-66
2023/12/12 10:06:24;;;;;;;57.58;33.67;;;358.60;2329.60;;;;;;5011613;28;20018;-63
2023/12/12 10:08:50;;;;;;;48.20;27.60;;;384.10;2329.60;;;;;;5012734;28;20486;-62
2023/12/12 10:11:16;;;;;;;64.82;37.05;;;384.00;2329.60;;;;;;5008611;28;20025;-63
2023/12/12 10:13:56;;;;;;;38.97;23.20;;;384.70;2329.60;;;;;;5011862;28;20095;-65
2023/12/12 10:16:22;;;;;;;25.85;16.50;;;384.90;2329.60;;;;;;5012593;28;20536;-64
2023/12/12 10:18:50;;;;;;;37.85;23.27;;;409.70;2355.20;;;;;;5011217;28;20064;-64
2023/12/12 10:21:17;;;;;;;28.77;19.73;;;384.90;2329.60;;;;;;5012217;28;20029;-64
2023/12/12 10:23:46;;;;;;;59.08;33.88;;;409.70;2355.20;;;;;;5012172;28;20026;-64
2023/12/12 10:26:13;;;;;;;28.35;18.25;;;410.10;2355.20;;;;;;5015377;28;20030;-64
2023/12/12 10:28:40;;;;;;;28.90;18.45;;;410.50;2355.20;;;;;;5000763;28;20054;-64
2023/12/12 10:31:07;;;;;;;24.65;15.45;;;435.20;2355.20;;;;;;5002556;28;20033;-64
2023/12/12 10:33:34;;;;;;;27.40;16.65;;;435.20;2355.20;;;;;;5010306;28;20502;-64
2023/12/12 10:36:03;;;;;;;42.70;25.02;;;435.40;2355.20;;;;;;5001377;28;20129;-64
2023/12/12 10:38:30;;;;;;;45.70;30.38;;;435.50;2355.20;;;;;;5007383;28;20429;-62
2023/12/12 10:41:10;;;;;;;34.25;23.60;;;435.70;2355.20;;;;;;5014483;28;20137;-63
2023/12/12 10:43:42;;;;;;;61.75;41.08;;;435.40;2355.20;;;;;;5028334;28;20080;-64
2023/12/12 10:46:15;;;;;;;38.58;23.65;;;410.50;2355.20;;;;;;5019021;28;20049;-64
2023/12/12 10:48:42;;;;;;;46.70;25.63;;;409.80;2355.20;;;;;;5009346;28;20057;-64
2023/12/12 10:51:10;;;;;;;100.05;62.00;;;409.90;2355.20;;;;;;5001592;28;20167;-63
2023/12/12 10:53:36;;;;;;;36.78;23.60;;;410.50;2355.20;;;;;;5011260;28;20482;-63
2023/12/12 10:56:07;;;;;;;90.85;53.88;;;410.40;2355.20;;;;;;5007264;28;20064;-64
2023/12/12 10:58:35;;;;;;;24.98;16.23;;;435.50;2355.20;;;;;;5014609;28;20026;-64
2023/12/12 11:01:02;;;;;;;21.67;13.98;;;435.30;2355.20;;;;;;5011989;28;20026;-65
2023/12/12 11:03:30;;;;;;;49.17;29.63;;;435.80;2355.20;;;;;;5013204;28;20022;-64
2023/12/12 11:05:58;;;;;;;41.53;26.85;;;461.10;2380.80;;;;;;5005670;28;20457;-64
2023/12/12 11:08:25;;;;;;;110.97;60.72;;;436.10;2355.20;;;;;;5000843;28;20540;-64
2023/12/12 11:10:52;;;;;;;45.08;26.58;;;461.10;2380.80;;;;;;4991809;28;20077;-64
2023/12/12 11:13:20;;;;;;;47.08;29.88;;;461.10;2380.80;;;;;;4992213;28;20034;-64
2023/12/12 11:15:46;;;;;;;16.40;10.80;;;436.10;2355.20;;;;;;5007682;28;20025;-64
2023/12/12 11:18:15;;;;;;;25.27;15.82;;;436.10;2355.20;;;;;;5015281;28;20018;-64
2023/12/12 11:20:41;;;;;;;17.05;11.05;;;435.90;2355.20;;;;;;5014959;28;20085;-68
2023/12/12 11:23:08;;;;;;;13.70;8.35;;;435.30;2355.20;;;;;;5004625;28;20038;-63
2023/12/12 11:25:40;;;;;;;65.13;43.25;;;409.80;2355.20;;;;;;5014118;28;20474;-64
2023/12/12 11:28:06;;;;;;;33.28;22.08;;;384.50;2329.60;;;;;;5019064;28;20029;-67
2023/12/12 11:30:39;;;;;;;23.50;15.90;;;384.00;2329.60;;;;;;5017382;28;20026;-64
2023/12/12 11:33:09;;;;;;;18.08;11.63;;;359.10;2329.60;;;;;;5012600;28;20089;-63
2023/12/12 11:35:35;;;;;;;23.25;14.93;;;359.20;2329.60;;;;;;5030773;28;20021;-65
2023/12/12 11:38:05;;;;;;;20.38;11.05;;;384.80;2329.60;;;;;;5031024;28;20039;-63
2023/12/12 11:40:33;;;;;;;21.00;15.40;;;410.10;2355.20;;;;;;5016347;28;20372;-63
2023/12/12 11:43:19;;;;;;;20.98;14.27;;;410.40;2355.20;;;;;;5010937;28;20033;-62
2023/12/12 11:45:46;;;;;;;29.20;19.55;;;435.40;2355.20;;;;;;5022464;28;20498;-65
2023/12/12 11:48:12;;;;;;;22.27;15.45;;;410.10;2355.20;;;;;;5009747;28;20033;-62
2023/12/12 11:50:37;;;;;;;89.85;40.17;;;410.00;2355.20;;;;;;5025919;28;20037;-62
2023/12/12 11:53:04;;;;;;;22.20;15.95;;;410.40;2355.20;;;;;;5027482;28;20398;-63
2023/12/12 11:55:32;;;;;;;17.67;10.20;;;435.50;2355.20;;;;;;5010955;28;20081;-64
2023/12/12 11:57:59;;;;;;;27.65;17.95;;;460.90;2380.80;;;;;;5010733;28;20062;-64
2023/12/12 12:00:25;;;;;;;14.75;10.57;;;460.80;2380.80;;;;;;5011053;28;20101;-68
2023/12/12 12:02:51;;;;;;;41.45;22.40;;;435.80;2355.20;;;;;;5011795;28;20110;-73
2023/12/12 12:05:17;;;;;;;107.90;54.38;;;461.10;2380.80;;;;;;5011725;28;20033;-65
2023/12/12 12:07:42;;;;;;;34.13;18.70;;;461.50;2329.60;;;;;;5005304;28;20018;-68